Time;durP1;ratioP1;P1;durP2;ratioP2;P2;SDS_P1;SDS_P2;PMS_P1;PMS_P2;Temp;Humidity;BMP_temperature;BMP_pressure;BME280_temperature;BME280_humidity;BME280_pressure;Samples;Min_cycle;Max_cycle;Signal;HPM_P1;HPM_P2
2020/12/04 00:02:01;;;;;;;14.73;12.27;;;6.50;80.40;;;;;;5056907;28;20032;-84
2020/12/04 00:04:27;;;;;;;15.30;12.43;;;6.50;79.90;;;;;;5070643;28;20040;-81
2020/12/04 00:06:53;;;;;;;14.50;11.27;;;6.50;80.10;;;;;;5052497;28;20048;-82
2020/12/04 00:09:19;;;;;;;14.50;10.90;;;6.50;80.30;;;;;;5066141;28;20385;-82
2020/12/04 00:11:45;;;;;;;14.20;11.07;;;6.50;80.00;;;;;;5066373;28;20040;-82
2020/12/04 00:14:11;;;;;;;13.60;10.73;;;6.50;80.00;;;;;;5055550;28;20455;-81
2020/12/04 00:16:37;;;;;;;15.23;11.47;;;6.50;80.00;;;;;;5067838;28;20041;-82
2020/12/04 00:19:23;;;;;;;14.10;10.97;;;6.50;79.90;;;;;;5056402;28;20048;-81
2020/12/04 00:22:09;;;;;;;14.43;11.23;;;6.50;80.10;;;;;;5040777;28;20048;-82
2020/12/04 00:24:34;;;;;;;14.63;11.97;;;6.50;79.80;;;;;;5085167;28;20496;-81
2020/12/04 00:27:20;;;;;;;13.63;11.70;;;6.50;79.70;;;;;;5059479;28;20543;-81
2020/12/04 00:29:46;;;;;;;19.00;11.13;;;6.50;79.30;;;;;;5071135;28;20044;-81
2020/12/04 00:32:12;;;;;;;15.17;11.00;;;6.50;79.30;;;;;;5085538;28;20067;-81
2020/12/04 00:34:58;;;;;;;13.97;10.80;;;6.50;79.00;;;;;;5067546;28;20056;-82
2020/12/04 00:37:44;;;;;;;14.83;10.60;;;6.50;79.10;;;;;;5074187;28;20080;-82
2020/12/04 00:40:10;;;;;;;14.23;11.23;;;6.50;78.90;;;;;;5068096;28;20085;-81
2020/12/04 00:42:35;;;;;;;15.33;11.30;;;6.50;78.90;;;;;;5068420;28;20032;-82
2020/12/04 00:45:01;;;;;;;13.90;11.33;;;6.50;78.40;;;;;;5083594;28;20033;-81
2020/12/04 00:47:48;;;;;;;12.93;10.63;;;6.50;78.70;;;;;;5057925;28;20052;-82
2020/12/04 00:50:14;;;;;;;12.33;10.13;;;6.50;78.70;;;;;;5074883;28;20025;-82
2020/12/04 00:52:40;;;;;;;13.17;10.17;;;6.50;78.80;;;;;;5037838;28;20047;-83
2020/12/04 00:55:26;;;;;;;12.67;9.53;;;6.50;78.80;;;;;;5045811;28;20044;-82
2020/12/04 00:58:12;;;;;;;11.43;9.40;;;6.60;79.00;;;;;;5038108;28;20052;-82
2020/12/04 01:00:38;;;;;;;11.73;9.63;;;6.60;78.60;;;;;;5054285;28;20435;-82
2020/12/04 01:03:03;;;;;;;14.93;10.27;;;6.60;78.60;;;;;;5070994;28;20088;-82
2020/12/04 01:05:49;;;;;;;10.60;9.43;;;6.60;78.70;;;;;;5042520;28;20066;-82
2020/12/04 01:08:15;;;;;;;12.27;9.57;;;6.60;78.40;;;;;;5054536;28;20086;-82
2020/12/04 01:10:41;;;;;;;11.87;9.67;;;6.60;78.60;;;;;;5069970;28;20033;-81
2020/12/04 01:13:07;;;;;;;12.33;9.43;;;6.60;78.10;;;;;;5069854;28;20043;-82
2020/12/04 01:15:33;;;;;;;13.27;9.70;;;6.60;77.90;;;;;;5070590;28;20157;-81
2020/12/04 01:17:59;;;;;;;12.57;9.30;;;6.70;78.00;;;;;;5068558;28;20034;-81
2020/12/04 01:20:45;;;;;;;11.83;9.47;;;6.60;77.50;;;;;;5065316;28;20047;-81
2020/12/04 01:23:11;;;;;;;12.07;8.93;;;6.70;77.90;;;;;;5067921;28;20045;-80
2020/12/04 01:25:37;;;;;;;12.03;9.27;;;6.70;77.70;;;;;;5049521;28;20994;-81
2020/12/04 01:28:03;;;;;;;11.73;9.37;;;6.70;77.70;;;;;;5051333;28;20086;-82
2020/12/04 01:30:48;;;;;;;12.57;9.63;;;6.70;77.50;;;;;;5058774;28;20048;-82
2020/12/04 01:33:34;;;;;;;14.07;9.87;;;6.70;77.80;;;;;;5047224;28;20818;-81
2020/12/04 01:36:00;;;;;;;10.37;8.27;;;6.70;78.60;;;;;;5074769;28;20036;-81
2020/12/04 01:38:26;;;;;;;10.87;8.87;;;6.70;77.80;;;;;;5054550;28;20052;-81
2020/12/04 01:40:58;;;;;;;13.27;8.83;;;6.70;77.60;;;;;;5070947;28;20062;-81
2020/12/04 01:43:43;;;;;;;11.77;9.73;;;6.80;77.80;;;;;;5030763;28;20177;-81
2020/12/04 01:46:09;;;;;;;13.07;9.80;;;6.70;77.10;;;;;;5065699;28;20481;-81
2020/12/04 01:48:35;;;;;;;12.60;8.80;;;6.70;77.40;;;;;;5041725;28;20028;-82
2020/12/04 01:51:01;;;;;;;14.43;9.67;;;6.70;77.90;;;;;;5068577;28;20033;-82
2020/12/04 01:53:48;;;;;;;12.27;8.90;;;6.80;77.70;;;;;;5030199;28;20085;-81
2020/12/04 01:56:13;;;;;;;12.23;8.63;;;6.80;77.90;;;;;;5054109;28;20044;-81
2020/12/04 01:58:59;;;;;;;11.13;9.03;;;6.70;76.70;;;;;;5040304;28;20485;-82
2020/12/04 02:01:25;;;;;;;12.40;8.80;;;6.80;77.70;;;;;;5071306;28;20029;-82
2020/12/04 02:03:50;;;;;;;9.63;7.97;;;6.80;77.50;;;;;;5050443;28;20044;-82
2020/12/04 02:06:23;;;;;;;11.40;8.77;;;6.80;78.00;;;;;;5073509;28;20052;-81
2020/12/04 02:09:04;;;;;;;9.43;8.00;;;6.80;77.20;;;;;;5077899;28;20028;-81
2020/12/04 02:11:30;;;;;;;9.80;8.00;;;6.80;77.10;;;;;;5082603;28;20044;-80
2020/12/04 02:13:56;;;;;;;9.87;7.63;;;6.80;77.20;;;;;;5051768;28;20601;-80
2020/12/04 02:16:22;;;;;;;10.00;8.53;;;6.80;77.30;;;;;;5056565;28;20647;-82
2020/12/04 02:18:48;;;;;;;10.93;8.23;;;6.80;77.20;;;;;;5071922;28;20037;-81
2020/12/04 02:21:14;;;;;;;10.33;8.37;;;6.90;76.60;;;;;;5041707;28;20060;-81
2020/12/04 02:23:43;;;;;;;11.33;9.13;;;6.80;77.20;;;;;;5056073;28;20044;-80
2020/12/04 02:26:09;;;;;;;11.23;7.43;;;6.80;76.70;;;;;;5042429;28;20036;-81
2020/12/04 02:28:35;;;;;;;10.33;8.13;;;6.80;77.20;;;;;;5057778;28;20041;-81
2020/12/04 02:31:02;;;;;;;11.97;8.60;;;6.80;76.60;;;;;;5076905;28;20028;-80
2020/12/04 02:33:27;;;;;;;11.20;8.40;;;6.90;77.00;;;;;;5056021;28;20469;-81
2020/12/04 02:35:53;;;;;;;10.33;7.70;;;6.80;76.90;;;;;;5073084;28;20059;-80
2020/12/04 02:38:20;;;;;;;10.40;7.83;;;6.80;76.90;;;;;;5037638;28;20111;-81
2020/12/04 02:40:45;;;;;;;11.27;8.70;;;6.80;76.90;;;;;;5054865;28;20028;-81
2020/12/04 02:43:11;;;;;;;11.53;8.33;;;6.80;76.70;;;;;;5050801;28;20046;-81
2020/12/04 02:45:37;;;;;;;11.57;8.90;;;6.80;76.80;;;;;;5071304;28;20041;-81
2020/12/04 02:48:22;;;;;;;10.10;8.07;;;6.90;77.00;;;;;;5053712;28;20051;-81
2020/12/04 02:50:48;;;;;;;10.70;8.47;;;6.80;76.70;;;;;;5056819;28;20032;-81
2020/12/04 02:53:14;;;;;;;10.27;7.97;;;6.80;76.50;;;;;;5077156;28;20032;-80
2020/12/04 02:55:40;;;;;;;11.53;8.57;;;6.90;76.30;;;;;;5037421;28;20067;-80
2020/12/04 02:58:06;;;;;;;11.70;8.10;;;6.80;77.00;;;;;;5038155;28;20041;-81
2020/12/04 03:00:51;;;;;;;11.17;7.60;;;6.90;77.20;;;;;;5071324;28;20044;-80
2020/12/04 03:03:37;;;;;;;9.17;7.40;;;6.90;77.50;;;;;;5054875;28;20170;-81
2020/12/04 03:06:03;;;;;;;11.97;9.23;;;6.90;76.50;;;;;;5072031;28;20386;-81
2020/12/04 03:08:29;;;;;;;12.77;9.47;;;6.90;76.30;;;;;;5069672;28;20029;-81
2020/12/04 03:10:57;;;;;;;14.03;9.20;;;6.90;76.80;;;;;;5072258;28;20038;-81
2020/12/04 03:13:23;;;;;;;10.47;7.57;;;6.90;77.00;;;;;;5054769;28;20405;-80
2020/12/04 03:15:49;;;;;;;11.03;8.53;;;6.90;77.00;;;;;;5071304;28;20055;-81
2020/12/04 03:18:17;;;;;;;12.13;8.93;;;6.90;77.00;;;;;;5053863;28;20052;-80
2020/12/04 03:20:43;;;;;;;13.03;8.47;;;6.90;76.30;;;;;;5071339;28;20071;-81
2020/12/04 03:23:09;;;;;;;10.93;8.27;;;6.90;76.70;;;;;;5054770;28;20063;-81
2020/12/04 03:25:55;;;;;;;10.93;8.43;;;6.90;76.50;;;;;;5036274;28;20063;-81
2020/12/04 03:28:21;;;;;;;12.70;8.90;;;6.90;76.60;;;;;;5070483;28;20068;-80
2020/12/04 03:30:47;;;;;;;11.70;9.10;;;6.90;76.70;;;;;;5066849;28;20032;-79
2020/12/04 03:33:33;;;;;;;11.23;8.33;;;6.90;77.00;;;;;;5054555;28;20050;-79
2020/12/04 03:35:58;;;;;;;11.47;8.80;;;6.90;77.30;;;;;;5057094;28;20476;-80
2020/12/04 03:38:24;;;;;;;11.40;8.17;;;6.90;76.80;;;;;;5044073;28;20033;-80
2020/12/04 03:40:50;;;;;;;12.13;9.10;;;6.90;77.10;;;;;;5075230;28;20040;-80
2020/12/04 03:43:40;;;;;;;10.40;8.03;;;6.90;77.80;;;;;;5055991;28;20076;-80
2020/12/04 03:46:12;;;;;;;10.10;7.63;;;6.90;77.30;;;;;;5043399;28;20055;-79
2020/12/04 03:48:38;;;;;;;12.27;8.70;;;6.90;77.10;;;;;;5074782;28;20117;-79
2020/12/04 03:51:24;;;;;;;11.50;9.20;;;6.90;77.00;;;;;;5057611;28;20445;-80
2020/12/04 03:53:50;;;;;;;14.73;9.27;;;6.90;77.10;;;;;;5071124;28;20044;-80
2020/12/04 03:56:15;;;;;;;13.77;9.27;;;6.90;77.00;;;;;;5075999;28;20039;-80
2020/12/04 03:58:41;;;;;;;12.53;9.30;;;6.90;76.80;;;;;;5057093;28;20692;-80
2020/12/04 04:01:07;;;;;;;13.10;8.80;;;6.90;76.40;;;;;;5056336;28;20467;-79
2020/12/04 04:03:53;;;;;;;11.70;8.73;;;6.90;77.00;;;;;;5044912;28;20048;-80
2020/12/04 04:06:18;;;;;;;13.07;9.10;;;6.90;76.90;;;;;;5067523;28;20055;-80
2020/12/04 04:08:44;;;;;;;21.80;8.53;;;6.90;76.50;;;;;;5067803;28;21270;-80
2020/12/04 04:11:10;;;;;;;12.17;9.30;;;6.90;76.80;;;;;;5070833;28;20060;-80
2020/12/04 04:13:38;;;;;;;12.97;9.33;;;6.90;76.80;;;;;;5087700;28;20033;-82
2020/12/04 04:16:24;;;;;;;13.93;9.63;;;6.80;77.40;;;;;;5071767;28;20517;-82
2020/12/04 04:19:10;;;;;;;14.20;9.63;;;6.80;77.50;;;;;;5063820;28;20071;-82
2020/12/04 04:21:39;;;;;;;11.97;9.10;;;6.90;77.80;;;;;;5071250;28;20044;-81
2020/12/04 04:24:06;;;;;;;12.40;8.90;;;6.90;78.00;;;;;;5070836;28;20036;-81
2020/12/04 04:26:32;;;;;;;13.97;9.23;;;6.80;77.70;;;;;;5052773;28;20043;-81
2020/12/04 04:29:17;;;;;;;12.70;9.23;;;6.80;78.30;;;;;;5058701;28;20049;-81
2020/12/04 04:32:03;;;;;;;12.43;8.57;;;6.80;78.60;;;;;;5055366;28;20040;-80
2020/12/04 04:34:49;;;;;;;12.40;9.17;;;6.70;78.70;;;;;;5082218;28;20516;-80
2020/12/04 04:37:15;;;;;;;12.30;9.60;;;6.70;78.40;;;;;;5071409;28;20089;-80
2020/12/04 04:39:43;;;;;;;13.30;8.23;;;6.70;78.90;;;;;;5072390;28;20028;-80
2020/12/04 04:42:09;;;;;;;12.33;9.13;;;6.70;78.90;;;;;;5042101;28;20033;-80
2020/12/04 04:44:55;;;;;;;12.90;9.63;;;6.60;78.90;;;;;;5064887;28;20365;-79
2020/12/04 04:47:20;;;;;;;14.57;9.17;;;6.60;79.30;;;;;;5035166;28;20044;-79
2020/12/04 04:49:48;;;;;;;13.73;10.07;;;6.60;79.50;;;;;;5049601;28;20397;-79
2020/12/04 04:52:15;;;;;;;14.77;9.60;;;6.70;79.70;;;;;;5037934;28;20069;-79
2020/12/04 04:55:00;;;;;;;16.63;10.30;;;6.60;80.30;;;;;;5065134;28;20036;-79
2020/12/04 04:57:26;;;;;;;14.60;9.57;;;6.60;79.90;;;;;;5054430;28;20133;-79
2020/12/04 04:59:53;;;;;;;17.53;10.53;;;6.60;79.90;;;;;;5055959;28;20117;-80
2020/12/04 05:02:19;;;;;;;14.87;10.20;;;6.60;79.70;;;;;;5051402;28;20029;-79
2020/12/04 05:04:52;;;;;;;14.23;10.23;;;6.60;79.90;;;;;;5039115;28;20103;-79
2020/12/04 05:07:28;;;;;;;12.75;9.38;;;6.60;80.00;;;;;;5055122;28;20041;-79
2020/12/04 05:09:54;;;;;;;14.03;9.23;;;6.60;80.00;;;;;;5064002;28;20038;-79
2020/12/04 05:12:40;;;;;;;14.13;9.17;;;6.60;80.20;;;;;;5062687;28;20051;-80
2020/12/04 05:15:21;;;;;;;12.63;9.47;;;6.60;80.30;;;;;;5070487;28;20036;-80
2020/12/04 05:18:03;;;;;;;14.23;9.63;;;6.70;80.20;;;;;;5055963;28;20086;-80
2020/12/04 05:20:29;;;;;;;13.67;9.67;;;6.60;80.20;;;;;;5055759;28;20057;-80
2020/12/04 05:23:15;;;;;;;14.00;9.53;;;6.60;80.40;;;;;;5068544;28;20041;-80
2020/12/04 05:26:02;;;;;;;13.67;9.87;;;6.50;80.40;;;;;;5038930;28;20079;-80
2020/12/04 05:28:29;;;;;;;15.83;10.83;;;6.60;80.40;;;;;;5054624;28;20032;-80
2020/12/04 05:31:05;;;;;;;15.17;10.77;;;6.50;80.20;;;;;;5036800;28;20079;-80
2020/12/04 05:33:31;;;;;;;14.67;10.50;;;6.50;80.40;;;;;;5072943;28;20071;-80
2020/12/04 05:35:57;;;;;;;18.37;10.90;;;6.50;80.50;;;;;;5040235;28;20060;-80
2020/12/04 05:38:52;;;;;;;15.97;10.83;;;6.50;80.80;;;;;;5045345;28;20049;-81
2020/12/04 05:41:48;;;;;;;14.97;10.40;;;6.50;80.90;;;;;;5046159;28;20163;-80
2020/12/04 05:44:15;;;;;;;15.30;11.03;;;6.60;81.10;;;;;;5055991;28;20059;-80
2020/12/04 05:46:41;;;;;;;17.77;11.50;;;6.50;81.30;;;;;;5040580;28;20032;-79
2020/12/04 05:49:08;;;;;;;17.47;10.80;;;6.50;82.00;;;;;;5058223;28;20048;-80
2020/12/04 05:51:38;;;;;;;15.13;10.67;;;6.70;81.50;;;;;;5043221;28;20477;-82
2020/12/04 05:54:07;;;;;;;14.37;9.80;;;6.50;81.50;;;;;;5073246;28;20059;-80
2020/12/04 05:56:33;;;;;;;18.57;11.33;;;6.50;81.50;;;;;;5042237;28;20393;-80
2020/12/04 05:59:03;;;;;;;15.57;10.70;;;6.50;81.30;;;;;;5069928;28;20561;-79
2020/12/04 06:01:29;;;;;;;19.20;11.73;;;6.50;81.40;;;;;;5042659;28;20125;-80
2020/12/04 06:03:56;;;;;;;18.67;11.43;;;6.50;81.50;;;;;;5053792;28;20036;-79
2020/12/04 06:06:26;;;;;;;15.53;10.63;;;6.50;82.00;;;;;;5050511;28;20047;-81
2020/12/04 06:08:53;;;;;;;15.60;11.00;;;6.50;82.20;;;;;;5066777;28;20034;-80
2020/12/04 06:11:20;;;;;;;23.60;10.93;;;6.50;82.70;;;;;;5067512;28;20041;-80
2020/12/04 06:13:46;;;;;;;15.03;11.17;;;6.50;82.80;;;;;;5057550;28;20036;-81
2020/12/04 06:16:13;;;;;;;17.67;11.70;;;6.50;83.20;;;;;;5067119;28;20142;-80
2020/12/04 06:18:40;;;;;;;16.87;11.30;;;6.50;83.50;;;;;;5048491;28;20515;-82
2020/12/04 06:21:06;;;;;;;16.30;11.43;;;6.50;83.50;;;;;;5033858;28;20116;-82
2020/12/04 06:23:33;;;;;;;16.23;11.10;;;6.50;83.50;;;;;;5048774;28;20042;-81
2020/12/04 06:26:00;;;;;;;17.43;11.80;;;6.60;83.60;;;;;;5034597;28;20057;-82
2020/12/04 06:28:28;;;;;;;18.73;12.73;;;6.50;83.70;;;;;;5054986;28;20072;-81
2020/12/04 06:31:15;;;;;;;17.73;11.10;;;6.50;83.70;;;;;;5065925;28;20082;-82
2020/12/04 06:33:48;;;;;;;29.03;12.37;;;6.50;83.80;;;;;;5065176;28;20079;-82
2020/12/04 06:36:33;;;;;;;20.17;12.07;;;6.50;84.00;;;;;;5055456;28;20052;-82
2020/12/04 06:38:59;;;;;;;18.10;10.77;;;6.50;83.80;;;;;;5060213;28;20042;-81
2020/12/04 06:41:43;;;;;;;16.97;11.70;;;6.50;84.20;;;;;;5067684;28;20043;-82
2020/12/04 06:44:19;;;;;;;;;;;6.50;84.20;;;;;;5064775;28;20040;-81
2020/12/04 06:46:53;;;;;;;31.57;12.03;;;6.50;84.10;;;;;;5064933;28;19916;-82
2020/12/04 06:49:44;;;;;;;21.47;12.10;;;6.40;84.40;;;;;;5068758;28;20033;-82
2020/12/04 06:52:12;;;;;;;18.77;13.43;;;6.50;84.60;;;;;;5069477;28;20045;-82
2020/12/04 06:54:58;;;;;;;20.07;12.20;;;6.50;84.60;;;;;;5047043;28;20580;-83
2020/12/04 06:57:23;;;;;;;16.63;11.23;;;6.50;84.70;;;;;;5085264;28;20043;-82
2020/12/04 06:59:50;;;;;;;17.87;11.83;;;6.50;85.20;;;;;;5051320;28;20063;-82
2020/12/04 07:02:16;;;;;;;21.70;13.23;;;6.50;85.20;;;;;;5068291;28;20120;-82
2020/12/04 07:04:47;;;;;;;18.43;12.00;;;6.50;84.50;;;;;;5073374;28;20024;-83
2020/12/04 07:07:32;;;;;;;15.97;11.53;;;6.50;84.20;;;;;;5042700;28;20044;-82
2020/12/04 07:10:02;;;;;;;18.07;12.80;;;6.50;84.50;;;;;;5051412;28;20059;-83
2020/12/04 07:12:28;;;;;;;18.47;12.50;;;6.50;84.40;;;;;;5041459;28;20409;-84
2020/12/04 07:15:00;;;;;;;20.70;13.80;;;6.50;85.30;;;;;;5066156;28;20036;-83
2020/12/04 07:17:27;;;;;;;18.13;11.70;;;6.50;84.40;;;;;;5082785;28;20037;-83
2020/12/04 07:19:54;;;;;;;18.37;12.80;;;6.50;84.40;;;;;;5049647;28;20033;-83
2020/12/04 07:22:23;;;;;;;19.03;12.97;;;6.50;84.50;;;;;;5053514;28;20041;-82
2020/12/04 07:24:50;;;;;;;17.63;11.73;;;6.50;84.60;;;;;;5038472;28;20457;-82
2020/12/04 07:27:17;;;;;;;19.33;12.30;;;6.50;84.60;;;;;;5065636;28;20040;-83
2020/12/04 07:29:43;;;;;;;19.53;12.87;;;6.50;84.50;;;;;;5035823;28;20037;-82
2020/12/04 07:32:29;;;;;;;16.00;11.13;;;6.50;84.30;;;;;;5036425;28;20496;-82
2020/12/04 07:34:55;;;;;;;18.87;12.33;;;6.50;84.30;;;;;;5052943;28;20033;-81
2020/12/04 07:37:27;;;;;;;17.87;12.43;;;6.50;84.20;;;;;;5069044;28;20029;-82
2020/12/04 07:39:53;;;;;;;18.03;11.90;;;6.50;84.10;;;;;;5037734;28;20032;-84
2020/12/04 07:42:20;;;;;;;18.67;12.40;;;6.50;84.30;;;;;;5073033;28;20292;-82
2020/12/04 07:44:52;;;;;;;16.20;12.27;;;6.50;84.30;;;;;;5068693;28;20036;-81
2020/12/04 07:47:42;;;;;;;14.77;11.50;;;6.50;84.30;;;;;;5052892;28;20043;-83
2020/12/04 07:50:27;;;;;;;16.73;11.13;;;6.50;84.30;;;;;;5038860;28;20049;-81
2020/12/04 07:52:54;;;;;;;22.27;15.00;;;6.50;85.00;;;;;;5052081;28;20036;-82
2020/12/04 07:55:21;;;;;;;17.43;11.67;;;6.50;84.40;;;;;;5050367;28;20044;-82
2020/12/04 07:58:11;;;;;;;16.07;11.53;;;6.50;84.40;;;;;;5070549;28;20052;-81
2020/12/04 08:00:37;;;;;;;15.20;10.63;;;6.60;84.60;;;;;;5053802;28;20092;-82
2020/12/04 08:03:04;;;;;;;14.13;10.53;;;6.60;84.60;;;;;;5052665;28;20366;-82
2020/12/04 08:05:29;;;;;;;19.87;13.20;;;6.60;84.60;;;;;;5054079;28;20163;-81
2020/12/04 08:07:55;;;;;;;16.77;12.13;;;6.60;84.60;;;;;;5053574;28;20113;-81
2020/12/04 08:10:21;;;;;;;16.30;11.30;;;6.60;84.20;;;;;;5054830;28;20094;-82
2020/12/04 08:12:50;;;;;;;13.63;10.13;;;6.60;84.40;;;;;;5072233;28;20514;-81
2020/12/04 08:15:17;;;;;;;14.03;10.53;;;6.60;84.30;;;;;;5055902;28;20064;-81
2020/12/04 08:17:43;;;;;;;11.90;9.33;;;6.70;83.90;;;;;;5068383;28;20065;-82
2020/12/04 08:20:16;;;;;;;13.17;9.60;;;6.70;84.20;;;;;;5072533;28;20466;-82
2020/12/04 08:22:46;;;;;;;;;;;6.70;84.10;;;;;;5083745;28;20135;-83
2020/12/04 08:25:12;;;;;;;16.17;11.30;;;6.70;84.50;;;;;;5086369;28;20010;-82
2020/12/04 08:27:41;;;;;;;14.63;9.73;;;6.70;84.10;;;;;;5071156;28;20044;-82
2020/12/04 08:30:27;;;;;;;12.33;9.43;;;6.70;84.00;;;;;;5091498;28;20080;-81
2020/12/04 08:32:53;;;;;;;11.07;8.67;;;6.70;84.20;;;;;;5068888;28;20044;-82
2020/12/04 08:35:23;;;;;;;11.27;8.27;;;6.80;84.00;;;;;;5067302;28;20041;-82
2020/12/04 08:37:50;;;;;;;11.13;8.63;;;6.80;83.90;;;;;;5038451;28;20094;-83
2020/12/04 08:40:30;;;;;;;11.87;8.43;;;6.80;83.50;;;;;;5067733;28;20043;-83
2020/12/04 08:43:16;;;;;;;9.77;8.03;;;6.80;82.70;;;;;;5065401;28;20033;-83
2020/12/04 08:45:43;;;;;;;8.43;7.43;;;6.90;83.50;;;;;;5045830;28;20116;-83
2020/12/04 08:48:29;;;;;;;8.23;6.57;;;6.90;83.60;;;;;;5041296;28;20543;-81
2020/12/04 08:51:15;;;;;;;8.53;7.07;;;7.00;83.70;;;;;;5065392;28;20389;-84
2020/12/04 08:53:41;;;;;;;9.27;6.97;;;7.00;83.10;;;;;;5040450;28;20029;-83
2020/12/04 08:56:07;;;;;;;8.27;6.03;;;7.00;83.50;;;;;;5063652;28;20066;-82
2020/12/04 08:58:33;;;;;;;11.17;7.33;;;7.20;83.60;;;;;;5052913;28;20037;-83
2020/12/04 09:00:59;;;;;;;8.07;6.13;;;7.10;83.50;;;;;;5054593;28;20032;-82
2020/12/04 09:03:26;;;;;;;7.67;5.77;;;7.10;82.80;;;;;;5053666;28;20028;-82
2020/12/04 09:05:54;;;;;;;7.80;5.60;;;7.10;83.20;;;;;;5064282;28;20401;-81
2020/12/04 09:08:20;;;;;;;6.83;5.63;;;7.20;83.00;;;;;;5053882;28;20111;-83
2020/12/04 09:10:46;;;;;;;7.57;5.60;;;7.20;83.20;;;;;;5063951;28;20083;-82
2020/12/04 09:13:12;;;;;;;7.80;5.90;;;7.20;82.90;;;;;;5053812;28;20036;-81
2020/12/04 09:15:38;;;;;;;6.53;5.53;;;7.30;83.00;;;;;;5052515;28;20032;-82
2020/12/04 09:18:05;;;;;;;6.07;5.17;;;7.30;82.70;;;;;;5020730;28;20048;-83
2020/12/04 09:20:31;;;;;;;7.10;6.13;;;7.40;83.00;;;;;;5033930;28;20119;-83
2020/12/04 09:22:57;;;;;;;6.30;5.30;;;7.40;82.90;;;;;;5049662;28;20064;-82
2020/12/04 09:25:23;;;;;;;6.37;5.00;;;7.50;82.70;;;;;;5068191;28;20037;-82
2020/12/04 09:27:49;;;;;;;6.93;6.27;;;7.60;82.80;;;;;;5049503;28;20106;-82
2020/12/04 09:30:35;;;;;;;5.73;4.43;;;7.60;82.40;;;;;;5055149;28;20044;-82
2020/12/04 09:33:00;;;;;;;6.10;4.70;;;7.70;82.60;;;;;;5081006;28;20063;-82
2020/12/04 09:35:46;;;;;;;5.17;4.17;;;7.70;81.90;;;;;;5082563;28;20063;-83
2020/12/04 09:38:32;;;;;;;6.07;4.60;;;7.70;82.20;;;;;;5052207;28;20045;-82
2020/12/04 09:41:00;;;;;;;5.37;4.07;;;7.70;82.20;;;;;;5053154;28;20388;-84
2020/12/04 09:43:26;;;;;;;4.80;4.37;;;7.80;82.80;;;;;;5073206;28;20025;-83
2020/12/04 09:46:12;;;;;;;5.40;4.20;;;7.80;81.80;;;;;;5024921;28;20091;-84
2020/12/04 09:48:58;;;;;;;4.80;4.10;;;7.80;81.50;;;;;;5056704;28;20037;-83
2020/12/04 09:51:43;;;;;;;4.83;3.83;;;7.90;81.90;;;;;;5060938;28;20036;-81
2020/12/04 09:54:09;;;;;;;3.93;3.53;;;8.00;82.00;;;;;;5040281;28;20061;-83
2020/12/04 09:56:35;;;;;;;3.97;3.37;;;8.00;82.00;;;;;;5073061;28;20131;-83
2020/12/04 09:59:01;;;;;;;7.53;3.70;;;8.10;81.40;;;;;;5067796;28;20048;-84
2020/12/04 10:01:51;;;;;;;3.57;3.27;;;8.20;81.30;;;;;;5049717;28;20040;-81
2020/12/04 10:04:18;;;;;;;4.87;3.80;;;8.20;81.00;;;;;;5052360;28;20047;-82
2020/12/04 10:06:46;;;;;;;8.33;3.50;;;8.20;80.60;;;;;;5051145;28;20094;-83
2020/12/04 10:09:32;;;;;;;3.73;3.13;;;8.70;80.50;;;;;;5048522;28;20076;-81
2020/12/04 10:11:59;;;;;;;3.47;2.87;;;8.40;81.00;;;;;;5017529;28;20120;-84
2020/12/04 10:14:25;;;;;;;4.80;3.50;;;8.40;80.60;;;;;;5055648;28;20369;-83
2020/12/04 10:16:52;;;;;;;3.97;3.43;;;8.50;80.70;;;;;;5069918;28;20063;-82
2020/12/04 10:19:18;;;;;;;3.10;2.83;;;8.50;80.50;;;;;;5055088;28;20035;-84
2020/12/04 10:21:45;;;;;;;4.70;3.30;;;8.50;80.00;;;;;;5041357;28;20033;-83
2020/12/04 10:24:31;;;;;;;3.13;2.83;;;8.60;80.60;;;;;;5068527;28;20142;-82
2020/12/04 10:26:58;;;;;;;4.87;3.30;;;8.60;80.80;;;;;;5068325;28;20040;-83
2020/12/04 10:29:26;;;;;;;3.53;3.23;;;8.70;80.60;;;;;;5062111;28;20059;-86
2020/12/04 10:32:28;;;;;;;3.92;3.53;;;8.80;80.30;;;;;;5066064;28;20041;-85
2020/12/04 10:34:55;;;;;;;4.73;2.70;;;8.80;80.30;;;;;;5087366;28;20078;-83
2020/12/04 10:37:21;;;;;;;3.80;3.13;;;8.90;80.20;;;;;;5038927;28;20443;-84
2020/12/04 10:40:06;;;;;;;2.57;2.37;;;8.90;80.00;;;;;;5055531;28;20044;-83
2020/12/04 10:42:32;;;;;;;3.00;2.70;;;9.10;80.30;;;;;;5069728;28;20044;-84
2020/12/04 10:48:35;;;;;;;2.13;1.87;;;9.00;79.60;;;;;;5077225;28;20056;-86
2020/12/04 10:51:01;;;;;;;2.50;1.87;;;9.10;80.50;;;;;;5072724;28;20029;-86
2020/12/04 10:53:29;;;;;;;2.67;1.73;;;9.20;79.30;;;;;;5052484;28;20036;-86
2020/12/04 10:55:55;;;;;;;2.63;1.83;;;9.30;80.00;;;;;;5068706;28;20504;-83
2020/12/04 10:58:40;;;;;;;1.90;1.80;;;9.40;80.10;;;;;;5052052;28;20045;-79
2020/12/04 11:01:11;;;;;;;3.00;1.53;;;9.50;78.80;;;;;;5021438;28;20047;-81
2020/12/04 11:06:26;;;;;;;2.73;1.70;;;9.70;78.20;;;;;;5043761;28;20677;-78
2020/12/04 11:08:52;;;;;;;1.80;1.33;;;9.80;77.80;;;;;;5035157;28;20110;-79
2020/12/04 11:11:20;;;;;;;1.57;1.37;;;9.80;77.90;;;;;;5024379;28;20522;-79
2020/12/04 11:14:06;;;;;;;2.67;1.70;;;9.80;77.40;;;;;;5047199;28;20088;-79
2020/12/04 11:16:51;;;;;;;2.00;1.13;;;9.80;77.80;;;;;;5042789;28;21152;-78
2020/12/04 11:19:17;;;;;;;1.80;1.10;;;9.90;78.70;;;;;;5057219;28;20032;-82
2020/12/04 11:21:44;;;;;;;1.47;1.00;;;10.00;78.60;;;;;;5071595;28;20037;-83
2020/12/04 11:24:32;;;;;;;2.70;1.00;;;10.00;77.40;;;;;;5055378;28;20481;-81
2020/12/04 11:26:58;;;;;;;1.57;1.33;;;10.00;77.20;;;;;;5061963;28;20029;-83
2020/12/04 11:29:26;;;;;;;1.63;1.00;;;10.10;76.80;;;;;;5060046;28;20033;-83
2020/12/04 11:31:51;;;;;;;2.47;1.23;;;10.60;77.30;;;;;;5058852;28;20037;-83
2020/12/04 11:34:37;;;;;;;3.40;1.17;;;10.10;77.00;;;;;;5048862;28;20037;-83
2020/12/04 11:37:03;;;;;;;1.70;1.30;;;10.20;75.80;;;;;;5073238;28;20033;-83
2020/12/04 11:39:29;;;;;;;1.63;1.20;;;10.20;75.70;;;;;;5038250;28;20053;-82
2020/12/04 11:41:54;;;;;;;2.63;1.27;;;10.20;76.20;;;;;;5040611;28;20033;-81
2020/12/04 11:44:20;;;;;;;1.80;1.50;;;10.20;76.50;;;;;;5048265;28;20120;-82
2020/12/04 11:46:46;;;;;;;1.50;1.37;;;10.30;76.80;;;;;;5059042;28;20097;-83
2020/12/04 11:49:12;;;;;;;1.20;1.10;;;10.30;74.90;;;;;;5058619;28;20032;-82
2020/12/04 11:51:57;;;;;;;1.40;1.20;;;10.50;76.50;;;;;;5049996;28;20033;-81
2020/12/04 11:54:23;;;;;;;1.87;1.40;;;10.40;74.90;;;;;;5054529;28;20087;-80
2020/12/04 11:56:50;;;;;;;2.23;2.03;;;10.40;76.00;;;;;;5055804;28;20434;-81
2020/12/04 11:59:19;;;;;;;2.67;0.97;;;10.40;75.90;;;;;;5063486;28;20135;-81
2020/12/04 12:02:05;;;;;;;1.10;1.00;;;10.40;74.10;;;;;;5064272;28;20029;-80
2020/12/04 12:04:31;;;;;;;1.27;1.17;;;10.40;75.50;;;;;;5046835;28;20473;-80
2020/12/04 12:07:17;;;;;;;2.50;1.17;;;10.40;76.00;;;;;;5059794;28;20131;-80
2020/12/04 12:09:43;;;;;;;1.80;1.33;;;10.40;76.20;;;;;;5063104;28;20108;-80
2020/12/04 12:12:09;;;;;;;1.53;1.43;;;10.40;75.50;;;;;;5056621;28;20041;-80
2020/12/04 12:14:36;;;;;;;1.50;1.30;;;10.40;75.00;;;;;;5067118;28;20055;-82
2020/12/04 12:17:22;;;;;;;1.77;1.30;;;10.40;76.10;;;;;;5041379;28;20053;-83
2020/12/04 12:19:49;;;;;;;1.83;1.53;;;10.40;74.90;;;;;;5071519;28;20045;-83
2020/12/04 12:22:14;;;;;;;2.38;1.38;;;10.40;75.20;;;;;;5077526;28;20044;-82
2020/12/04 12:24:42;;;;;;;2.55;1.30;;;10.30;75.70;;;;;;5053163;28;20490;-84
2020/12/04 12:27:09;;;;;;;1.92;1.48;;;10.40;76.10;;;;;;5040628;28;20029;-81
2020/12/04 12:29:57;;;;;;;1.83;1.50;;;10.40;76.00;;;;;;5041145;28;20397;-83
2020/12/04 12:32:24;;;;;;;4.17;1.23;;;10.40;76.20;;;;;;5036095;28;20063;-81
2020/12/04 12:35:00;;;;;;;1.67;1.55;;;10.40;76.10;;;;;;5070425;28;20045;-83
2020/12/04 12:37:26;;;;;;;2.73;1.90;;;10.40;76.40;;;;;;5034398;28;20047;-82
2020/12/04 12:39:52;;;;;;;1.33;1.20;;;10.40;76.90;;;;;;5041007;28;20499;-81
2020/12/04 12:42:18;;;;;;;1.30;1.20;;;10.50;77.30;;;;;;5059863;28;20042;-83
2020/12/04 12:45:04;;;;;;;1.65;1.27;;;10.40;76.40;;;;;;5037940;28;20040;-82
2020/12/04 12:47:50;;;;;;;1.37;1.03;;;10.50;75.50;;;;;;5058645;28;20053;-82
2020/12/04 12:50:16;;;;;;;1.47;1.10;;;10.40;73.30;;;;;;5065734;28;20507;-84
2020/12/04 12:52:42;;;;;;;2.47;0.80;;;10.40;74.10;;;;;;5032406;28;20219;-83
2020/12/04 12:55:09;;;;;;;1.40;0.80;;;10.40;73.10;;;;;;5060915;28;20047;-80
2020/12/04 12:57:34;;;;;;;39.47;24.50;;;10.60;74.00;;;;;;5045811;28;20078;-82
2020/12/04 13:00:00;;;;;;;1.52;1.40;;;10.40;74.70;;;;;;5061720;28;20057;-83
2020/12/04 13:02:26;;;;;;;10.40;0.80;;;10.30;72.80;;;;;;5059830;28;20033;-83
2020/12/04 13:04:51;;;;;;;2.63;0.40;;;10.30;71.90;;;;;;5058184;28;20032;-83
2020/12/04 13:07:37;;;;;;;0.73;0.30;;;10.20;71.80;;;;;;5056770;28;20044;-82
2020/12/04 13:10:03;;;;;;;2.43;0.60;;;10.20;73.60;;;;;;5067069;28;20485;-82
2020/12/04 13:12:29;;;;;;;1.52;0.35;;;10.20;73.90;;;;;;5061397;28;20043;-82
2020/12/04 13:15:14;;;;;;;0.65;0.30;;;10.20;74.50;;;;;;5051472;28;22411;-82